createdAt,value
2019-05-15T00:00:38.633Z,7.20
2019-05-15T00:03:08.841Z,7.10
2019-05-15T00:05:39.376Z,6.90
2019-05-15T00:08:09.870Z,6.70
2019-05-15T00:10:40.006Z,6.70
2019-05-15T00:13:10.163Z,6.60
2019-05-15T00:15:40.489Z,6.60
2019-05-15T00:18:10.385Z,6.50
2019-05-15T00:20:42.097Z,6.70
2019-05-15T00:23:11.998Z,6.70
2019-05-15T00:25:41.874Z,6.70
2019-05-15T00:28:11.722Z,6.70
2019-05-15T00:30:41.683Z,6.70
2019-05-15T00:33:11.663Z,6.50
2019-05-15T00:35:41.574Z,6.40
2019-05-15T00:38:12.148Z,6.30
2019-05-15T00:40:42.289Z,6.30
2019-05-15T00:43:12.162Z,6.30
2019-05-15T00:45:44.422Z,6.30
2019-05-15T00:48:13.566Z,6.30
2019-05-15T00:50:43.411Z,6.20
2019-05-15T00:53:13.395Z,6.20
2019-05-15T00:55:43.361Z,6.30
2019-05-15T00:58:13.168Z,6.30
2019-05-15T01:00:44.325Z,6.30
2019-05-15T01:03:14.563Z,6.10
2019-05-15T01:05:44.504Z,6.10
2019-05-15T01:08:14.420Z,6.00
2019-05-15T01:10:44.576Z,5.90
2019-05-15T01:13:14.378Z,5.80
2019-05-15T01:15:44.369Z,5.70
2019-05-15T01:18:14.312Z,5.70
2019-05-15T01:20:44.482Z,5.60
2019-05-15T01:23:14.626Z,5.60
2019-05-15T01:25:44.716Z,5.60
2019-05-15T01:28:14.864Z,5.60
2019-05-15T01:30:51.418Z,5.50
2019-05-15T01:33:18.746Z,5.50
2019-05-15T01:35:48.759Z,5.50
2019-05-15T01:38:21.020Z,5.50
2019-05-15T01:40:51.018Z,5.50
2019-05-15T01:43:22.087Z,5.40
2019-05-15T01:45:52.190Z,5.30
2019-05-15T01:48:22.003Z,5.20
2019-05-15T01:50:54.200Z,5.20
2019-05-15T01:53:26.283Z,5.10
2019-05-15T01:55:58.759Z,5.00
2019-05-15T01:58:30.989Z,5.00
2019-05-15T02:01:00.943Z,5.10
2019-05-15T02:03:30.984Z,5.10
2019-05-15T02:06:01.036Z,5.10
2019-05-15T02:08:31.041Z,5.10
2019-05-15T02:11:01.076Z,5.10
2019-05-15T02:13:31.068Z,5.00
2019-05-15T02:16:00.979Z,5.00
2019-05-15T02:18:30.865Z,5.10
2019-05-15T02:21:00.773Z,5.00
2019-05-15T02:23:33.859Z,5.10
2019-05-15T02:26:04.928Z,5.10
2019-05-15T02:28:34.832Z,5.00
2019-05-15T02:31:04.651Z,5.00
2019-05-15T02:33:34.599Z,4.80
2019-05-15T02:36:09.411Z,5.00
2019-05-15T02:38:40.401Z,5.00
2019-05-15T02:41:09.847Z,5.00
2019-05-15T02:43:39.615Z,5.10
2019-05-15T02:46:10.309Z,5.00
2019-05-15T02:48:41.215Z,4.80
2019-05-15T02:51:11.247Z,4.70
2019-05-15T02:53:41.101Z,4.70
2019-05-15T02:56:10.963Z,4.70
2019-05-15T02:58:40.872Z,4.60
2019-05-15T03:01:10.889Z,4.60
2019-05-15T03:03:40.930Z,4.50
2019-05-15T03:06:13.151Z,4.50
2019-05-15T03:08:49.251Z,4.40
2019-05-15T03:11:18.977Z,4.40
2019-05-15T03:13:50.332Z,4.30
2019-05-15T03:16:20.541Z,4.30
2019-05-15T03:18:53.384Z,4.20
2019-05-15T03:21:22.418Z,4.20
2019-05-15T03:23:52.649Z,4.30
2019-05-15T03:26:22.556Z,4.30
2019-05-15T03:28:52.738Z,4.30
2019-05-15T03:31:40.830Z,4.30
2019-05-15T03:33:55.140Z,4.30
2019-05-15T03:36:31.089Z,4.20
2019-05-15T03:38:58.716Z,4.10
2019-05-15T03:41:30.737Z,4.10
2019-05-15T03:44:00.684Z,4.20
2019-05-15T03:46:30.613Z,4.20
2019-05-15T03:49:00.710Z,4.20
2019-05-15T03:51:30.830Z,4.30
2019-05-15T03:54:00.850Z,4.60
2019-05-15T03:56:30.767Z,5.00
2019-05-15T03:59:00.710Z,5.10
2019-05-15T04:01:38.751Z,5.10
2019-05-15T04:04:02.035Z,5.10
2019-05-15T04:06:32.154Z,5.10
2019-05-15T04:09:02.078Z,5.10
2019-05-15T04:11:32.072Z,5.50
2019-05-15T04:14:02.053Z,6.70
2019-05-15T04:16:32.039Z,8.00
2019-05-15T04:19:01.918Z,9.20
2019-05-15T04:21:32.158Z,10.20
2019-05-15T04:24:03.310Z,11.20
2019-05-15T04:26:35.668Z,11.90
2019-05-15T04:29:05.616Z,12.30
2019-05-15T04:31:50.533Z,12.90
2019-05-15T04:34:09.200Z,13.40
2019-05-15T04:36:39.098Z,14.10
2019-05-15T04:39:09.787Z,14.90
2019-05-15T04:41:39.473Z,15.50
2019-05-15T04:44:10.255Z,15.60
2019-05-15T04:46:40.910Z,15.60
2019-05-15T04:49:11.045Z,15.70
2019-05-15T04:51:40.252Z,15.70
2019-05-15T04:54:09.745Z,15.90
2019-05-15T04:56:40.269Z,15.80
2019-05-15T04:59:10.194Z,15.60
2019-05-15T05:01:40.348Z,15.70
2019-05-15T05:04:09.653Z,16.60
2019-05-15T05:06:39.113Z,17.20
2019-05-15T05:09:09.257Z,16.90
2019-05-15T05:11:38.483Z,16.90
2019-05-15T05:14:08.524Z,16.90
2019-05-15T05:16:39.642Z,17.80
2019-05-15T05:19:09.103Z,19.00
2019-05-15T05:21:40.724Z,19.20
2019-05-15T05:24:09.571Z,19.60
2019-05-15T05:26:39.030Z,20.40
2019-05-15T05:29:08.510Z,20.60
2019-05-15T05:31:39.156Z,21.10
2019-05-15T05:34:08.349Z,22.10
2019-05-15T05:36:38.682Z,22.10
2019-05-15T05:39:13.327Z,20.80
2019-05-15T05:41:40.085Z,20.40
2019-05-15T05:44:08.968Z,21.00
2019-05-15T05:46:39.793Z,21.30
2019-05-15T05:49:08.661Z,21.50
2019-05-15T05:51:38.692Z,21.90
2019-05-15T05:54:08.402Z,22.30
2019-05-15T05:56:37.872Z,23.00
2019-05-15T05:59:09.271Z,23.50
2019-05-15T06:01:43.759Z,23.50
2019-05-15T06:04:08.873Z,23.40
2019-05-15T06:06:38.538Z,24.30
2019-05-15T06:09:09.290Z,24.60
2019-05-15T06:11:38.506Z,24.70
2019-05-15T06:14:08.815Z,24.20
2019-05-15T06:16:40.921Z,23.40
2019-05-15T06:19:10.220Z,23.20
2019-05-15T06:21:52.490Z,23.20
2019-05-15T06:24:13.067Z,23.50
2019-05-15T06:26:40.407Z,23.50
2019-05-15T06:29:09.376Z,24.50
2019-05-15T06:31:38.930Z,24.60
2019-05-15T06:34:09.555Z,25.50
2019-05-15T06:36:39.418Z,25.60
2019-05-15T06:39:11.439Z,25.10
2019-05-15T06:41:40.501Z,24.10
2019-05-15T06:44:09.546Z,24.80
2019-05-15T06:46:39.211Z,26.20
2019-05-15T06:49:08.556Z,27.30
2019-05-15T06:51:37.954Z,27.50
2019-05-15T06:54:08.744Z,27.90
2019-05-15T06:56:38.863Z,29.00
2019-05-15T06:59:08.664Z,29.80
2019-05-15T07:01:38.529Z,29.50
2019-05-15T07:04:08.452Z,29.00
2019-05-15T07:06:38.076Z,29.60
2019-05-15T07:09:09.482Z,29.30
2019-05-15T07:11:38.790Z,28.70
2019-05-15T07:14:08.889Z,28.40
2019-05-15T07:16:39.029Z,28.70
2019-05-15T07:19:10.413Z,27.70
2019-05-15T07:21:39.537Z,27.80
2019-05-15T07:24:09.201Z,29.20
2019-05-15T07:26:39.125Z,28.60
2019-05-15T07:29:08.432Z,28.40
2019-05-15T07:31:38.462Z,27.60
2019-05-15T07:34:08.380Z,27.10
2019-05-15T07:36:39.025Z,26.00
2019-05-15T07:39:09.811Z,27.10
2019-05-15T07:41:48.281Z,28.30
2019-05-15T07:44:19.061Z,28.40
2019-05-15T07:46:48.965Z,28.90
2019-05-15T07:49:18.229Z,28.60
2019-05-15T07:51:48.825Z,29.00
2019-05-15T07:54:22.297Z,30.70
2019-05-15T07:56:51.417Z,32.80
2019-05-15T07:59:23.946Z,33.20
2019-05-15T08:01:58.227Z,32.50
2019-05-15T08:04:30.556Z,29.40
2019-05-15T08:06:59.112Z,30.00
2019-05-15T08:09:28.486Z,29.50
2019-05-15T08:12:02.681Z,29.00
2019-05-15T08:14:29.471Z,29.20
2019-05-15T08:16:59.193Z,29.40
2019-05-15T08:19:28.946Z,30.00
2019-05-15T08:21:58.293Z,30.10
2019-05-15T08:24:29.727Z,29.60
2019-05-15T08:26:58.212Z,28.50
2019-05-15T08:29:28.819Z,29.90
2019-05-15T08:31:59.020Z,29.20
2019-05-15T08:34:28.587Z,28.10
2019-05-15T08:36:59.041Z,28.30
2019-05-15T08:39:28.562Z,28.20
2019-05-15T08:41:58.453Z,27.70
2019-05-15T08:44:31.037Z,29.50
2019-05-15T08:47:00.287Z,28.40
2019-05-15T08:49:29.616Z,29.30
2019-05-15T08:51:58.623Z,30.00
2019-05-15T08:54:29.102Z,29.20
2019-05-15T08:56:59.209Z,30.30
2019-05-15T08:59:29.518Z,30.40
2019-05-15T09:02:01.924Z,29.60
2019-05-15T09:04:35.044Z,29.60
2019-05-15T09:07:03.404Z,29.80
2019-05-15T09:09:32.453Z,30.80
2019-05-15T09:12:01.679Z,32.70
2019-05-15T09:14:31.324Z,34.00
2019-05-15T09:17:00.316Z,34.00
2019-05-15T09:19:29.420Z,33.30
2019-05-15T09:21:58.681Z,31.90
2019-05-15T09:24:28.601Z,32.50
2019-05-15T09:27:00.886Z,33.70
2019-05-15T09:29:29.853Z,33.10
2019-05-15T09:32:00.401Z,33.60
2019-05-15T09:34:46.437Z,32.70
2019-05-15T09:37:02.452Z,29.70
2019-05-15T09:39:31.633Z,27.10
2019-05-15T09:42:00.885Z,27.60
2019-05-15T09:44:31.083Z,28.70
2019-05-15T09:47:01.620Z,32.30
2019-05-15T09:49:32.380Z,33.00
2019-05-15T09:52:10.763Z,27.70
2019-05-15T09:54:41.396Z,28.70
2019-05-15T09:57:11.250Z,27.80
2019-05-15T09:59:40.430Z,26.90
2019-05-15T10:02:09.861Z,30.40
2019-05-15T10:04:39.231Z,29.90
2019-05-15T10:07:08.367Z,27.60
2019-05-15T10:09:38.880Z,26.90
2019-05-15T10:12:09.080Z,24.50
2019-05-15T10:14:38.678Z,24.50
2019-05-15T10:17:09.184Z,25.10
2019-05-15T10:19:38.477Z,24.60
2019-05-15T10:22:09.693Z,24.10
2019-05-15T10:24:38.545Z,25.60
2019-05-15T10:27:08.784Z,26.50
2019-05-15T10:29:38.759Z,26.50
2019-05-15T10:32:08.692Z,26.90
2019-05-15T10:34:38.431Z,27.00
2019-05-15T10:37:08.441Z,28.50
2019-05-15T10:39:38.480Z,29.50
2019-05-15T10:42:08.236Z,28.10
2019-05-15T10:44:39.218Z,27.90
2019-05-15T10:47:08.821Z,25.40
2019-05-15T10:49:38.976Z,23.50
2019-05-15T10:52:08.781Z,21.40
2019-05-15T10:54:38.773Z,19.90
2019-05-15T10:57:08.685Z,19.50
2019-05-15T10:59:39.995Z,19.10
2019-05-15T11:02:09.060Z,19.00
2019-05-15T11:04:39.224Z,19.30
2019-05-15T11:07:09.846Z,19.10
2019-05-15T11:09:40.711Z,18.80
2019-05-15T11:12:13.375Z,18.30
2019-05-15T11:14:43.555Z,18.10
2019-05-15T11:17:15.682Z,17.70
2019-05-15T11:19:49.511Z,17.90
2019-05-15T11:22:18.898Z,18.00
2019-05-15T11:24:52.478Z,17.80
2019-05-15T11:27:20.639Z,17.70
2019-05-15T11:29:50.685Z,18.00
2019-05-15T11:32:20.653Z,18.10
2019-05-15T11:34:50.983Z,17.90
2019-05-15T11:37:22.563Z,18.20
2019-05-15T11:39:53.298Z,18.60
2019-05-15T11:42:28.823Z,18.60
2019-05-15T11:45:01.401Z,18.30
2019-05-15T11:47:31.498Z,18.20
2019-05-15T11:50:01.761Z,18.10
2019-05-15T11:52:31.839Z,17.80
2019-05-15T11:55:02.744Z,17.60
2019-05-15T11:57:42.506Z,17.50
2019-05-15T12:00:17.092Z,17.80
2019-05-15T12:02:51.106Z,18.00
2019-05-15T12:05:21.209Z,17.80
2019-05-15T12:07:58.100Z,18.00
2019-05-15T12:10:29.097Z,18.40
2019-05-15T12:15:58.741Z,18.50
2019-05-15T12:18:24.968Z,18.90
2019-05-15T12:21:02.614Z,19.00
2019-05-15T12:23:33.311Z,19.50
2019-05-15T12:26:09.010Z,19.80
2019-05-15T12:28:42.208Z,19.50
2019-05-15T12:31:12.593Z,19.20
2019-05-15T12:33:44.304Z,19.30
2019-05-15T12:36:47.441Z,19.40
2019-05-15T12:39:13.922Z,18.90
2019-05-15T12:59:46.582Z,19.80
2019-05-15T13:02:19.545Z,19.20
2019-05-15T13:04:49.621Z,18.80
2019-05-15T13:07:21.056Z,18.30
2019-05-15T13:10:00.821Z,18.00
2019-05-15T13:12:28.584Z,17.80
2019-05-15T13:14:59.041Z,17.70
2019-05-15T13:17:29.287Z,17.80
2019-05-15T13:20:08.884Z,18.10
2019-05-15T13:22:42.181Z,18.40
2019-05-15T13:25:14.008Z,18.20
2019-05-15T13:27:44.063Z,18.00
2019-05-15T13:30:18.363Z,17.50
2019-05-15T13:32:51.797Z,17.10
2019-05-15T13:35:22.380Z,17.00
2019-05-15T13:37:58.664Z,17.10
2019-05-15T13:40:37.156Z,17.00
2019-05-15T13:43:11.599Z,16.90
2019-05-15T13:45:41.576Z,17.10
2019-05-15T13:48:12.354Z,17.40
2019-05-15T13:50:42.345Z,17.50
2019-05-15T13:53:17.929Z,17.50
2019-05-15T13:55:56.151Z,17.40
2019-05-15T13:58:28.215Z,17.30
2019-05-15T14:01:00.228Z,17.40
2019-05-15T14:03:30.626Z,17.50
2019-05-15T14:06:05.494Z,17.60
2019-05-15T14:08:38.203Z,17.60
2019-05-15T14:11:08.766Z,17.40
2019-05-15T14:13:43.943Z,17.40
2019-05-15T14:16:24.920Z,17.90
2019-05-15T14:18:58.589Z,18.10
2019-05-15T14:21:28.703Z,18.20
2019-05-15T14:24:02.067Z,18.10
2019-05-15T14:26:39.370Z,18.00
2019-05-15T14:29:10.791Z,17.90
2019-05-15T14:31:42.188Z,17.60
2019-05-15T14:34:12.649Z,17.60
2019-05-15T14:36:48.202Z,17.60
2019-05-15T14:39:38.050Z,17.90
2019-05-15T14:42:04.736Z,18.30
2019-05-15T14:44:35.049Z,18.00
2019-05-15T14:47:08.950Z,17.80
2019-05-15T14:49:49.660Z,17.70
2019-05-15T14:52:20.166Z,17.60
2019-05-15T14:54:50.558Z,17.40
2019-05-15T14:57:27.251Z,17.20
2019-05-15T14:59:58.028Z,17.00
2019-05-15T15:02:28.700Z,16.90
2019-05-15T15:04:59.603Z,17.00
2019-05-15T15:07:29.710Z,17.10
2019-05-15T15:10:00.008Z,17.20
2019-05-15T15:12:30.019Z,17.40
2019-05-15T15:15:00.234Z,17.50
2019-05-15T15:17:30.116Z,17.60
2019-05-15T15:20:01.844Z,17.80
2019-05-15T15:22:34.473Z,17.90
2019-05-15T15:25:09.736Z,18.00
2019-05-15T15:27:48.027Z,18.10
2019-05-15T15:30:19.015Z,18.10
2019-05-15T15:32:51.431Z,17.80
2019-05-15T15:35:21.990Z,17.80
2019-05-15T15:37:58.237Z,17.90
2019-05-15T15:40:31.378Z,17.90
2019-05-15T15:43:10.130Z,18.20
2019-05-15T15:45:48.411Z,18.00
2019-05-15T15:48:48.292Z,17.70
2019-05-15T15:51:19.812Z,17.80
2019-05-15T15:53:49.805Z,17.90
2019-05-15T15:56:19.966Z,17.70
2019-05-15T15:58:49.943Z,17.60
2019-05-15T16:01:23.525Z,17.30
2019-05-15T16:03:56.048Z,17.20
2019-05-15T16:06:29.415Z,17.10
2019-05-15T16:08:59.728Z,17.00
2019-05-15T16:11:31.818Z,17.00
2019-05-15T16:14:01.874Z,17.20
2019-05-15T16:16:32.240Z,17.30
2019-05-15T16:19:04.041Z,17.10
2019-05-15T16:21:34.104Z,17.10
2019-05-15T16:24:14.891Z,16.90
2019-05-15T16:26:38.157Z,16.80
2019-05-15T16:29:09.183Z,16.40
2019-05-15T16:31:39.575Z,16.30
2019-05-15T16:34:09.592Z,16.10
2019-05-15T16:36:44.581Z,16.20
2019-05-15T16:39:14.464Z,16.30
2019-05-15T16:41:48.984Z,16.20
2019-05-15T16:44:19.906Z,16.30
2019-05-15T16:47:08.492Z,16.30
2019-05-15T16:49:41.540Z,16.20
2019-05-15T16:52:11.548Z,16.30
2019-05-15T16:54:44.350Z,16.30
2019-05-15T16:57:14.822Z,16.30
2019-05-15T16:59:48.025Z,16.30
2019-05-15T17:02:18.967Z,16.20
2019-05-15T17:04:50.934Z,16.00
2019-05-15T17:07:21.004Z,16.00
2019-05-15T17:09:51.009Z,16.00
2019-05-15T17:12:22.250Z,16.00
2019-05-15T17:14:58.374Z,15.90
2019-05-15T17:17:28.472Z,15.80
2019-05-15T17:20:02.102Z,15.80
2019-05-15T17:22:31.095Z,15.80
2019-05-15T17:25:01.109Z,15.70
2019-05-15T17:27:33.696Z,15.60
2019-05-15T17:30:06.082Z,15.50
2019-05-15T17:32:38.564Z,15.30
2019-05-15T17:35:09.791Z,15.20
2019-05-15T17:37:42.257Z,15.20
2019-05-15T17:40:17.810Z,15.10
2019-05-15T17:42:51.201Z,15.00
2019-05-15T17:45:32.905Z,15.00
2019-05-15T17:48:12.207Z,15.00
2019-05-15T17:50:48.649Z,14.80
2019-05-15T17:53:18.131Z,14.80
2019-05-15T17:55:49.756Z,14.70
2019-05-15T17:58:23.621Z,14.70
2019-05-15T18:00:59.203Z,14.70
2019-05-15T18:03:31.590Z,14.60
2019-05-15T18:06:06.092Z,14.60
2019-05-15T18:08:41.153Z,14.50
2019-05-15T18:11:12.789Z,14.40
2019-05-15T18:13:53.125Z,14.30
2019-05-15T18:16:23.575Z,14.20
2019-05-15T18:19:10.583Z,14.20
2019-05-15T18:21:38.120Z,14.10
2019-05-15T18:24:27.352Z,14.10
2019-05-15T18:27:15.133Z,14.00
2019-05-15T18:29:58.583Z,13.90
2019-05-15T18:32:33.330Z,13.90
2019-05-15T18:35:11.522Z,13.80
2019-05-15T18:37:44.172Z,13.70
2019-05-15T18:40:25.035Z,13.70
2019-05-15T18:42:59.372Z,13.60
2019-05-15T18:45:33.935Z,13.50
2019-05-15T18:48:07.215Z,13.50
2019-05-15T18:52:00.107Z,13.40
2019-05-15T18:54:49.890Z,13.40
2019-05-15T18:57:31.004Z,13.30
2019-05-15T19:00:58.397Z,13.30
2019-05-15T19:03:30.407Z,13.30
2019-05-15T19:06:02.004Z,13.20
2019-05-15T19:08:38.731Z,13.10
2019-05-15T19:11:14.682Z,13.10
2019-05-15T19:13:45.164Z,13.10
2019-05-15T19:16:20.769Z,13.00
2019-05-15T19:18:51.070Z,13.00
2019-05-15T19:21:29.586Z,12.90
2019-05-15T19:24:04.624Z,12.90
2019-05-15T19:26:36.374Z,12.90
2019-05-15T19:29:12.917Z,12.90
2019-05-15T19:31:43.886Z,12.80
2019-05-15T19:34:28.136Z,12.80
2019-05-15T19:37:14.819Z,12.70
2019-05-15T19:39:48.479Z,12.70
2019-05-15T19:42:25.579Z,12.60
2019-05-15T19:44:59.443Z,12.60
2019-05-15T19:47:32.964Z,12.60
2019-05-15T19:50:04.664Z,12.60
2019-05-15T19:52:59.308Z,12.50
2019-05-15T19:55:34.399Z,12.50
2019-05-15T19:58:20.192Z,12.50
2019-05-15T20:01:00.799Z,12.40
2019-05-15T20:03:52.966Z,12.50
2019-05-15T20:06:24.368Z,12.40
2019-05-15T20:09:10.019Z,12.30
2019-05-15T20:11:45.114Z,12.30
2019-05-15T20:15:01.113Z,12.30
2019-05-15T20:17:48.911Z,12.30
2019-05-15T20:20:18.698Z,12.30
2019-05-15T20:23:03.688Z,12.30
2019-05-15T20:25:52.208Z,12.20
2019-05-15T20:28:28.895Z,12.20
2019-05-15T20:31:10.051Z,12.10
2019-05-15T20:33:48.426Z,12.10
2019-05-15T20:36:25.898Z,12.10
2019-05-15T20:39:18.940Z,12.10
2019-05-15T20:42:18.098Z,12.00
2019-05-15T20:44:57.934Z,12.00
2019-05-15T20:51:13.113Z,11.90
2019-05-15T20:53:57.906Z,11.90
2019-05-15T20:56:40.749Z,11.80
2019-05-15T20:59:34.986Z,11.80
2019-05-15T21:02:14.797Z,11.70
2019-05-15T21:04:48.017Z,11.70
2019-05-15T21:07:38.542Z,11.70
2019-05-15T21:10:04.230Z,11.60
2019-05-15T21:12:34.722Z,11.60
2019-05-15T21:15:11.500Z,11.60
2019-05-15T21:17:54.396Z,11.60
2019-05-15T21:20:24.972Z,11.60
2019-05-15T21:23:01.374Z,11.50
2019-05-15T21:25:41.610Z,11.50
2019-05-15T21:28:21.036Z,11.50
2019-05-15T21:30:58.328Z,11.50
2019-05-15T21:33:38.709Z,11.50
2019-05-15T21:36:12.810Z,11.50
2019-05-15T21:38:43.584Z,11.50
2019-05-15T21:44:38.245Z,11.40
2019-05-15T21:47:13.042Z,11.40
2019-05-15T21:49:48.186Z,11.50
2019-05-15T21:52:20.606Z,11.40
2019-05-15T21:54:53.753Z,11.40
2019-05-15T21:57:35.691Z,11.40
2019-05-15T22:00:08.799Z,11.30
2019-05-15T22:02:45.115Z,11.30
2019-05-15T22:05:14.773Z,11.30
2019-05-15T22:08:04.583Z,11.30
2019-05-15T22:10:32.619Z,11.30
2019-05-15T22:13:05.739Z,11.20
2019-05-15T22:15:41.997Z,11.20
2019-05-15T22:18:19.023Z,11.20
2019-05-15T22:20:52.149Z,11.20
2019-05-15T22:23:24.708Z,11.20
2019-05-15T22:25:54.738Z,11.10
2019-05-15T22:28:28.713Z,11.10
2019-05-15T22:31:08.930Z,11.10
2019-05-15T22:33:40.218Z,11.10
2019-05-15T22:36:10.840Z,11.10
2019-05-15T22:38:41.156Z,11.10
2019-05-15T22:41:11.367Z,11.10
2019-05-15T22:43:42.452Z,11.10
2019-05-15T22:46:14.186Z,11.00
2019-05-15T22:48:48.580Z,11.00
2019-05-15T22:51:22.733Z,11.00
2019-05-15T22:53:53.901Z,11.00
2019-05-15T22:56:23.994Z,11.00
2019-05-15T22:58:53.891Z,11.00
2019-05-15T23:01:23.966Z,11.00
2019-05-15T23:03:53.943Z,10.90
2019-05-15T23:06:23.975Z,10.90
2019-05-15T23:08:53.900Z,10.80
2019-05-15T23:11:26.233Z,10.80
2019-05-15T23:14:00.347Z,10.80
2019-05-15T23:16:30.367Z,10.60
2019-05-15T23:19:02.180Z,10.20
2019-05-15T23:21:33.425Z,9.70
2019-05-15T23:24:03.384Z,9.40
2019-05-15T23:26:33.242Z,9.20
2019-05-15T23:29:03.121Z,9.00
2019-05-15T23:31:33.133Z,9.00
2019-05-15T23:34:03.161Z,8.90
2019-05-15T23:36:33.141Z,8.90
2019-05-15T23:39:03.791Z,8.80
2019-05-15T23:41:36.899Z,8.80
2019-05-15T23:44:08.187Z,8.80
2019-05-15T23:46:39.490Z,8.90
2019-05-15T23:49:09.720Z,8.90
2019-05-15T23:51:41.495Z,8.90
2019-05-15T23:54:11.632Z,9.00
2019-05-15T23:56:41.786Z,9.00
2019-05-15T23:59:11.872Z,9.00
